sensor_id;sensor_type;location;lat;lon;timestamp;pressure;altitude;pressure_sealevel;temperature;humidity
15066;BME280;7632;64.944;20.038;2024-03-17T00:01:08;99855.19;;;-11.79;100.00
15066;BME280;7632;64.944;20.038;2024-03-17T00:03:34;99859.38;;;-11.88;100.00
15066;BME280;7632;64.944;20.038;2024-03-17T00:06:02;99854.31;;;-12.18;100.00
15066;BME280;7632;64.944;20.038;2024-03-17T00:08:29;99859.94;;;-12.29;100.00
15066;BME280;7632;64.944;20.038;2024-03-17T00:10:55;99865.38;;;-12.33;100.00
15066;BME280;7632;64.944;20.038;2024-03-17T00:13:23;99861.66;;;-12.38;100.00
15066;BME280;7632;64.944;20.038;2024-03-17T00:15:49;99871.56;;;-12.57;100.00
15066;BME280;7632;64.944;20.038;2024-03-17T00:18:15;99877.03;;;-12.69;100.00
15066;BME280;7632;64.944;20.038;2024-03-17T00:20:41;99868.63;;;-12.71;100.00
15066;BME280;7632;64.944;20.038;2024-03-17T00:23:10;99874.44;;;-12.71;100.00
15066;BME280;7632;64.944;20.038;2024-03-17T00:25:37;99874.38;;;-12.62;100.00
15066;BME280;7632;64.944;20.038;2024-03-17T00:28:05;99859.00;;;-12.68;100.00
15066;BME280;7632;64.944;20.038;2024-03-17T00:30:31;99864.00;;;-12.58;100.00
15066;BME280;7632;64.944;20.038;2024-03-17T00:32:58;99877.69;;;-12.43;100.00
15066;BME280;7632;64.944;20.038;2024-03-17T00:35:25;99883.38;;;-12.44;100.00
15066;BME280;7632;64.944;20.038;2024-03-17T00:37:52;99884.44;;;-12.69;100.00
15066;BME280;7632;64.944;20.038;2024-03-17T00:40:20;99883.47;;;-13.08;100.00
15066;BME280;7632;64.944;20.038;2024-03-17T00:42:47;99886.81;;;-13.08;100.00
15066;BME280;7632;64.944;20.038;2024-03-17T00:45:13;99874.78;;;-13.13;100.00
15066;BME280;7632;64.944;20.038;2024-03-17T00:47:40;99895.72;;;-13.18;100.00
15066;BME280;7632;64.944;20.038;2024-03-17T00:50:07;99895.72;;;-13.18;100.00
15066;BME280;7632;64.944;20.038;2024-03-17T00:52:34;99900.25;;;-13.23;100.00
15066;BME280;7632;64.944;20.038;2024-03-17T00:55:00;99901.94;;;-13.41;100.00
15066;BME280;7632;64.944;20.038;2024-03-17T00:57:28;99887.00;;;-13.69;100.00
15066;BME280;7632;64.944;20.038;2024-03-17T00:59:54;99907.78;;;-13.93;100.00
15066;BME280;7632;64.944;20.038;2024-03-17T01:02:22;99901.78;;;-14.14;100.00
15066;BME280;7632;64.944;20.038;2024-03-17T01:04:47;99913.63;;;-14.01;100.00
15066;BME280;7632;64.944;20.038;2024-03-17T01:07:14;99918.28;;;-14.04;100.00
15066;BME280;7632;64.944;20.038;2024-03-17T01:09:40;99919.34;;;-14.19;100.00
15066;BME280;7632;64.944;20.038;2024-03-17T01:12:07;99919.69;;;-14.33;100.00
15066;BME280;7632;64.944;20.038;2024-03-17T01:14:34;99920.22;;;-14.27;100.00
15066;BME280;7632;64.944;20.038;2024-03-17T01:17:01;99926.94;;;-14.43;100.00
15066;BME280;7632;64.944;20.038;2024-03-17T01:19:30;99933.03;;;-14.65;100.00
15066;BME280;7632;64.944;20.038;2024-03-17T01:21:57;99948.09;;;-14.45;100.00
15066;BME280;7632;64.944;20.038;2024-03-17T01:24:23;99948.66;;;-14.56;100.00
15066;BME280;7632;64.944;20.038;2024-03-17T01:26:50;99950.84;;;-14.59;100.00
15066;BME280;7632;64.944;20.038;2024-03-17T01:29:16;99947.94;;;-14.81;100.00
15066;BME280;7632;64.944;20.038;2024-03-17T01:31:44;99952.50;;;-15.10;100.00
15066;BME280;7632;64.944;20.038;2024-03-17T01:34:10;99947.75;;;-15.00;100.00
15066;BME280;7632;64.944;20.038;2024-03-17T01:36:37;99951.75;;;-15.09;100.00
15066;BME280;7632;64.944;20.038;2024-03-17T01:39:02;99957.53;;;-15.17;100.00
15066;BME280;7632;64.944;20.038;2024-03-17T01:41:30;99961.34;;;-14.94;100.00
15066;BME280;7632;64.944;20.038;2024-03-17T01:43:57;99967.44;;;-15.00;100.00
15066;BME280;7632;64.944;20.038;2024-03-17T01:46:24;99951.13;;;-15.32;100.00
15066;BME280;7632;64.944;20.038;2024-03-17T01:48:51;99974.56;;;-15.44;100.00
15066;BME280;7632;64.944;20.038;2024-03-17T01:51:19;99983.66;;;-15.43;100.00
15066;BME280;7632;64.944;20.038;2024-03-17T01:53:45;99985.84;;;-15.37;100.00
15066;BME280;7632;64.944;20.038;2024-03-17T01:56:13;99987.59;;;-15.45;100.00
15066;BME280;7632;64.944;20.038;2024-03-17T01:58:44;99997.44;;;-15.45;100.00
15066;BME280;7632;64.944;20.038;2024-03-17T02:01:11;100002.81;;;-15.64;100.00
15066;BME280;7632;64.944;20.038;2024-03-17T02:03:40;100006.25;;;-15.38;100.00
15066;BME280;7632;64.944;20.038;2024-03-17T02:06:08;100014.34;;;-15.48;100.00
15066;BME280;7632;64.944;20.038;2024-03-17T02:08:48;100006.06;;;-15.57;100.00
15066;BME280;7632;64.944;20.038;2024-03-17T02:11:25;100022.81;;;-15.61;100.00
15066;BME280;7632;64.944;20.038;2024-03-17T02:13:52;100013.28;;;-15.58;100.00
15066;BME280;7632;64.944;20.038;2024-03-17T02:16:19;100030.81;;;-15.55;100.00
15066;BME280;7632;64.944;20.038;2024-03-17T02:18:45;100022.47;;;-15.73;100.00
15066;BME280;7632;64.944;20.038;2024-03-17T02:21:14;100036.28;;;-15.82;100.00
15066;BME280;7632;64.944;20.038;2024-03-17T02:23:42;100046.19;;;-15.73;100.00
15066;BME280;7632;64.944;20.038;2024-03-17T02:26:08;100046.63;;;-15.93;100.00
15066;BME280;7632;64.944;20.038;2024-03-17T02:28:41;100044.38;;;-15.83;100.00
15066;BME280;7632;64.944;20.038;2024-03-17T02:31:09;100052.09;;;-15.96;100.00
15066;BME280;7632;64.944;20.038;2024-03-17T02:33:35;100056.06;;;-15.89;100.00
15066;BME280;7632;64.944;20.038;2024-03-17T02:36:02;100045.19;;;-15.91;100.00
15066;BME280;7632;64.944;20.038;2024-03-17T02:38:29;100053.38;;;-15.59;100.00
15066;BME280;7632;64.944;20.038;2024-03-17T02:41:15;100066.22;;;-15.62;100.00
15066;BME280;7632;64.944;20.038;2024-03-17T02:43:42;100071.13;;;-15.62;100.00
15066;BME280;7632;64.944;20.038;2024-03-17T02:46:11;100052.69;;;-15.74;100.00
15066;BME280;7632;64.944;20.038;2024-03-17T02:48:38;100075.16;;;-15.71;100.00
15066;BME280;7632;64.944;20.038;2024-03-17T02:51:10;100069.81;;;-15.82;100.00
15066;BME280;7632;64.944;20.038;2024-03-17T02:53:38;100086.50;;;-15.80;100.00
15066;BME280;7632;64.944;20.038;2024-03-17T02:56:06;100093.56;;;-15.83;100.00
15066;BME280;7632;64.944;20.038;2024-03-17T02:58:35;100095.00;;;-15.85;100.00
15066;BME280;7632;64.944;20.038;2024-03-17T03:01:02;100097.69;;;-16.06;100.00
15066;BME280;7632;64.944;20.038;2024-03-17T03:03:29;100105.78;;;-15.92;100.00
15066;BME280;7632;64.944;20.038;2024-03-17T03:05:56;100108.16;;;-15.84;100.00
15066;BME280;7632;64.944;20.038;2024-03-17T03:08:24;100108.78;;;-15.94;100.00
15066;BME280;7632;64.944;20.038;2024-03-17T03:10:51;100104.69;;;-16.33;100.00
15066;BME280;7632;64.944;20.038;2024-03-17T03:13:18;100109.72;;;-16.78;100.00
15066;BME280;7632;64.944;20.038;2024-03-17T03:15:47;100115.78;;;-16.52;100.00
15066;BME280;7632;64.944;20.038;2024-03-17T03:18:14;100121.03;;;-16.49;100.00
15066;BME280;7632;64.944;20.038;2024-03-17T03:20:41;100130.84;;;-16.34;100.00
15066;BME280;7632;64.944;20.038;2024-03-17T03:23:08;100128.13;;;-16.28;100.00
15066;BME280;7632;64.944;20.038;2024-03-17T03:25:35;100132.84;;;-16.23;100.00
15066;BME280;7632;64.944;20.038;2024-03-17T03:28:02;100132.09;;;-16.37;100.00
15066;BME280;7632;64.944;20.038;2024-03-17T03:30:29;100132.22;;;-16.83;100.00
15066;BME280;7632;64.944;20.038;2024-03-17T03:32:57;100131.75;;;-16.71;100.00
15066;BME280;7632;64.944;20.038;2024-03-17T03:35:24;100140.91;;;-16.77;100.00
15066;BME280;7632;64.944;20.038;2024-03-17T03:37:54;100140.41;;;-16.59;100.00
15066;BME280;7632;64.944;20.038;2024-03-17T03:40:21;100143.94;;;-16.64;100.00
15066;BME280;7632;64.944;20.038;2024-03-17T03:42:48;100150.09;;;-16.84;100.00
15066;BME280;7632;64.944;20.038;2024-03-17T03:45:15;100149.63;;;-16.72;100.00
15066;BME280;7632;64.944;20.038;2024-03-17T03:47:42;100155.19;;;-16.66;100.00
15066;BME280;7632;64.944;20.038;2024-03-17T03:50:11;100166.69;;;-16.97;100.00
15066;BME280;7632;64.944;20.038;2024-03-17T03:52:38;100167.53;;;-17.19;100.00
15066;BME280;7632;64.944;20.038;2024-03-17T03:55:07;100171.34;;;-17.43;100.00
15066;BME280;7632;64.944;20.038;2024-03-17T03:57:35;100171.28;;;-17.59;100.00
15066;BME280;7632;64.944;20.038;2024-03-17T04:00:03;100174.31;;;-17.46;100.00
15066;BME280;7632;64.944;20.038;2024-03-17T04:02:37;100177.91;;;-17.58;100.00
15066;BME280;7632;64.944;20.038;2024-03-17T04:05:05;100185.31;;;-17.65;100.00
15066;BME280;7632;64.944;20.038;2024-03-17T04:07:33;100182.81;;;-17.58;100.00
15066;BME280;7632;64.944;20.038;2024-03-17T04:10:01;100186.31;;;-17.56;100.00
15066;BME280;7632;64.944;20.038;2024-03-17T04:12:28;100190.53;;;-17.55;100.00
15066;BME280;7632;64.944;20.038;2024-03-17T04:14:56;100187.03;;;-17.64;100.00
15066;BME280;7632;64.944;20.038;2024-03-17T04:17:23;100197.22;;;-17.61;100.00
15066;BME280;7632;64.944;20.038;2024-03-17T04:19:50;100191.28;;;-17.70;100.00
15066;BME280;7632;64.944;20.038;2024-03-17T04:22:18;100196.72;;;-17.73;100.00
15066;BME280;7632;64.944;20.038;2024-03-17T04:24:49;100198.66;;;-17.84;100.00
15066;BME280;7632;64.944;20.038;2024-03-17T04:27:18;100208.50;;;-17.91;100.00
15066;BME280;7632;64.944;20.038;2024-03-17T04:29:46;100200.13;;;-17.93;100.00
15066;BME280;7632;64.944;20.038;2024-03-17T04:32:13;100209.53;;;-17.82;100.00
15066;BME280;7632;64.944;20.038;2024-03-17T04:34:41;100196.41;;;-17.90;100.00
15066;BME280;7632;64.944;20.038;2024-03-17T04:37:08;100214.06;;;-17.71;100.00
15066;BME280;7632;64.944;20.038;2024-03-17T04:39:36;100215.81;;;-17.77;100.00
15066;BME280;7632;64.944;20.038;2024-03-17T04:42:05;100214.56;;;-17.74;100.00
15066;BME280;7632;64.944;20.038;2024-03-17T04:44:32;100209.47;;;-17.68;100.00
15066;BME280;7632;64.944;20.038;2024-03-17T04:46:59;100220.69;;;-17.63;100.00
15066;BME280;7632;64.944;20.038;2024-03-17T04:49:26;100225.13;;;-17.45;100.00
15066;BME280;7632;64.944;20.038;2024-03-17T04:51:53;100234.66;;;-17.62;100.00
15066;BME280;7632;64.944;20.038;2024-03-17T04:54:20;100226.88;;;-17.81;99.68
15066;BME280;7632;64.944;20.038;2024-03-17T04:56:47;100227.56;;;-17.75;100.00
15066;BME280;7632;64.944;20.038;2024-03-17T04:59:15;100228.34;;;-17.60;100.00
15066;BME280;7632;64.944;20.038;2024-03-17T05:01:42;100227.97;;;-17.49;99.54
15066;BME280;7632;64.944;20.038;2024-03-17T05:04:08;100210.88;;;-17.70;99.57
15066;BME280;7632;64.944;20.038;2024-03-17T05:06:35;100235.63;;;-17.46;100.00
15066;BME280;7632;64.944;20.038;2024-03-17T05:09:02;100246.47;;;-17.44;99.75
15066;BME280;7632;64.944;20.038;2024-03-17T05:11:30;100252.34;;;-17.57;99.30
15066;BME280;7632;64.944;20.038;2024-03-17T05:13:57;100257.41;;;-17.49;98.45
15066;BME280;7632;64.944;20.038;2024-03-17T05:16:25;100250.13;;;-17.84;98.61
15066;BME280;7632;64.944;20.038;2024-03-17T05:18:54;100253.28;;;-17.71;98.58
15066;BME280;7632;64.944;20.038;2024-03-17T05:21:22;100251.50;;;-17.72;98.18
15066;BME280;7632;64.944;20.038;2024-03-17T05:23:49;100260.22;;;-17.60;97.98
15066;BME280;7632;64.944;20.038;2024-03-17T05:26:16;100259.69;;;-17.50;98.22
15066;BME280;7632;64.944;20.038;2024-03-17T05:28:43;100278.84;;;-17.76;97.83
15066;BME280;7632;64.944;20.038;2024-03-17T05:31:10;100280.66;;;-18.03;97.38
15066;BME280;7632;64.944;20.038;2024-03-17T05:33:42;100282.03;;;-18.05;97.24
15066;BME280;7632;64.944;20.038;2024-03-17T05:36:08;100283.13;;;-18.10;97.08
15066;BME280;7632;64.944;20.038;2024-03-17T05:38:36;100286.63;;;-18.22;97.47
15066;BME280;7632;64.944;20.038;2024-03-17T05:41:04;100278.56;;;-18.21;97.49
15066;BME280;7632;64.944;20.038;2024-03-17T05:43:32;100289.41;;;-18.33;96.93
15066;BME280;7632;64.944;20.038;2024-03-17T05:46:02;100304.47;;;-18.16;97.43
15066;BME280;7632;64.944;20.038;2024-03-17T05:48:29;100302.66;;;-17.96;97.96
15066;BME280;7632;64.944;20.038;2024-03-17T05:50:57;100307.22;;;-17.71;98.23
15066;BME280;7632;64.944;20.038;2024-03-17T05:53:24;100311.66;;;-17.46;99.01
15066;BME280;7632;64.944;20.038;2024-03-17T05:55:51;100321.22;;;-17.77;98.08
15066;BME280;7632;64.944;20.038;2024-03-17T05:58:18;100299.50;;;-17.88;97.92
15066;BME280;7632;64.944;20.038;2024-03-17T06:00:45;100319.13;;;-17.81;98.35
15066;BME280;7632;64.944;20.038;2024-03-17T06:03:11;100319.09;;;-17.53;98.72
15066;BME280;7632;64.944;20.038;2024-03-17T06:05:39;100327.69;;;-17.56;98.40
15066;BME280;7632;64.944;20.038;2024-03-17T06:08:08;100329.16;;;-17.36;98.52
15066;BME280;7632;64.944;20.038;2024-03-17T06:10:37;100329.84;;;-17.30;98.29
15066;BME280;7632;64.944;20.038;2024-03-17T06:13:05;100334.41;;;-17.33;98.09
15066;BME280;7632;64.944;20.038;2024-03-17T06:15:32;100321.81;;;-17.43;97.24
15066;BME280;7632;64.944;20.038;2024-03-17T06:18:00;100338.59;;;-17.25;97.46
15066;BME280;7632;64.944;20.038;2024-03-17T06:20:28;100344.41;;;-17.31;97.39
15066;BME280;7632;64.944;20.038;2024-03-17T06:22:55;100343.78;;;-17.08;98.07
15066;BME280;7632;64.944;20.038;2024-03-17T06:25:24;100345.03;;;-16.67;98.51
15066;BME280;7632;64.944;20.038;2024-03-17T06:27:50;100345.72;;;-15.71;99.76
15066;BME280;7632;64.944;20.038;2024-03-17T06:30:18;100349.75;;;-14.62;98.19
15066;BME280;7632;64.944;20.038;2024-03-17T06:32:46;100350.63;;;-13.40;96.10
15066;BME280;7632;64.944;20.038;2024-03-17T06:35:13;100336.28;;;-12.58;93.62
15066;BME280;7632;64.944;20.038;2024-03-17T06:37:41;100350.50;;;-12.30;90.02
15066;BME280;7632;64.944;20.038;2024-03-17T06:40:10;100347.91;;;-12.49;87.27
15066;BME280;7632;64.944;20.038;2024-03-17T06:42:41;100353.59;;;-12.58;86.63
15066;BME280;7632;64.944;20.038;2024-03-17T06:45:08;100350.81;;;-12.53;87.17
15066;BME280;7632;64.944;20.038;2024-03-17T06:47:35;100367.38;;;-12.43;86.74
15066;BME280;7632;64.944;20.038;2024-03-17T06:50:02;100368.84;;;-12.37;87.31
15066;BME280;7632;64.944;20.038;2024-03-17T06:52:29;100373.94;;;-12.35;87.51
15066;BME280;7632;64.944;20.038;2024-03-17T06:54:56;100361.88;;;-12.41;88.15
15066;BME280;7632;64.944;20.038;2024-03-17T06:57:23;100381.38;;;-12.52;87.56
15066;BME280;7632;64.944;20.038;2024-03-17T06:59:52;100380.78;;;-12.41;88.25
15066;BME280;7632;64.944;20.038;2024-03-17T07:02:19;100383.66;;;-12.19;88.75
15066;BME280;7632;64.944;20.038;2024-03-17T07:04:46;100390.63;;;-12.07;88.76
15066;BME280;7632;64.944;20.038;2024-03-17T07:07:14;100388.59;;;-11.94;88.01
15066;BME280;7632;64.944;20.038;2024-03-17T07:09:41;100397.91;;;-12.00;87.47
15066;BME280;7632;64.944;20.038;2024-03-17T07:12:08;100394.38;;;-11.85;87.55
15066;BME280;7632;64.944;20.038;2024-03-17T07:14:36;100396.28;;;-11.91;87.30
15066;BME280;7632;64.944;20.038;2024-03-17T07:17:05;100395.50;;;-11.81;87.61
15066;BME280;7632;64.944;20.038;2024-03-17T07:19:32;100400.00;;;-11.42;88.01
15066;BME280;7632;64.944;20.038;2024-03-17T07:22:01;100393.47;;;-11.14;87.98
15066;BME280;7632;64.944;20.038;2024-03-17T07:24:29;100399.47;;;-10.93;87.77
15066;BME280;7632;64.944;20.038;2024-03-17T07:26:55;100400.63;;;-10.71;87.31
15066;BME280;7632;64.944;20.038;2024-03-17T07:29:22;100396.97;;;-10.66;86.23
15066;BME280;7632;64.944;20.038;2024-03-17T07:31:52;100399.16;;;-10.69;85.84
15066;BME280;7632;64.944;20.038;2024-03-17T07:34:20;100408.34;;;-10.31;85.68
15066;BME280;7632;64.944;20.038;2024-03-17T07:36:47;100414.03;;;-10.13;85.00
15066;BME280;7632;64.944;20.038;2024-03-17T07:39:13;100410.09;;;-10.01;84.60
15066;BME280;7632;64.944;20.038;2024-03-17T07:41:41;100422.25;;;-9.76;83.95
15066;BME280;7632;64.944;20.038;2024-03-17T07:44:08;100420.13;;;-9.52;83.27
15066;BME280;7632;64.944;20.038;2024-03-17T07:46:35;100422.88;;;-9.39;83.36
15066;BME280;7632;64.944;20.038;2024-03-17T07:49:02;100433.47;;;-9.22;82.74
15066;BME280;7632;64.944;20.038;2024-03-17T07:51:30;100437.75;;;-9.11;82.23
15066;BME280;7632;64.944;20.038;2024-03-17T07:53:59;100438.91;;;-8.87;82.12
15066;BME280;7632;64.944;20.038;2024-03-17T07:56:26;100442.78;;;-8.60;80.82
15066;BME280;7632;64.944;20.038;2024-03-17T07:58:53;100442.88;;;-8.39;79.29
15066;BME280;7632;64.944;20.038;2024-03-17T08:01:20;100452.78;;;-8.19;77.92
15066;BME280;7632;64.944;20.038;2024-03-17T08:03:47;100448.78;;;-8.07;77.70
15066;BME280;7632;64.944;20.038;2024-03-17T08:06:19;100448.72;;;-7.87;77.21
15066;BME280;7632;64.944;20.038;2024-03-17T08:08:47;100448.63;;;-7.66;75.52
15066;BME280;7632;64.944;20.038;2024-03-17T08:11:14;100444.59;;;-7.54;75.59
15066;BME280;7632;64.944;20.038;2024-03-17T08:13:41;100446.69;;;-7.39;75.60
15066;BME280;7632;64.944;20.038;2024-03-17T08:16:08;100448.00;;;-7.32;74.07
15066;BME280;7632;64.944;20.038;2024-03-17T08:18:36;100456.09;;;-7.03;73.17
15066;BME280;7632;64.944;20.038;2024-03-17T08:21:04;100456.25;;;-6.90;72.07
15066;BME280;7632;64.944;20.038;2024-03-17T08:23:32;100453.38;;;-6.73;71.53
15066;BME280;7632;64.944;20.038;2024-03-17T08:26:00;100439.59;;;-6.68;70.86
15066;BME280;7632;64.944;20.038;2024-03-17T08:28:28;100462.91;;;-6.46;69.55
15066;BME280;7632;64.944;20.038;2024-03-17T08:30:56;100464.25;;;-6.28;68.64
15066;BME280;7632;64.944;20.038;2024-03-17T08:33:23;100477.94;;;-6.23;67.98
15066;BME280;7632;64.944;20.038;2024-03-17T08:35:54;100468.81;;;-6.11;67.06
15066;BME280;7632;64.944;20.038;2024-03-17T08:38:21;100470.34;;;-6.13;66.09
15066;BME280;7632;64.944;20.038;2024-03-17T08:40:49;100465.81;;;-5.83;66.99
15066;BME280;7632;64.944;20.038;2024-03-17T08:43:18;100469.81;;;-5.74;65.71
15066;BME280;7632;64.944;20.038;2024-03-17T08:45:45;100471.44;;;-5.51;64.66
15066;BME280;7632;64.944;20.038;2024-03-17T08:48:12;100464.03;;;-5.50;63.50
15066;BME280;7632;64.944;20.038;2024-03-17T08:50:38;100466.19;;;-5.43;64.94
15066;BME280;7632;64.944;20.038;2024-03-17T08:53:05;100460.06;;;-5.23;64.21
15066;BME280;7632;64.944;20.038;2024-03-17T08:55:32;100453.53;;;-5.21;62.46
15066;BME280;7632;64.944;20.038;2024-03-17T08:57:59;100454.75;;;-5.03;64.37
15066;BME280;7632;64.944;20.038;2024-03-17T09:00:27;100441.78;;;-5.22;62.58
15066;BME280;7632;64.944;20.038;2024-03-17T09:02:56;100455.50;;;-5.17;61.73
15066;BME280;7632;64.944;20.038;2024-03-17T09:05:22;100465.00;;;-5.00;62.01
15066;BME280;7632;64.944;20.038;2024-03-17T09:07:49;100466.72;;;-4.87;62.44
15066;BME280;7632;64.944;20.038;2024-03-17T09:10:16;100480.41;;;-4.82;62.47
15066;BME280;7632;64.944;20.038;2024-03-17T09:12:43;100479.78;;;-4.67;61.42
15066;BME280;7632;64.944;20.038;2024-03-17T09:15:12;100482.28;;;-4.55;60.88
15066;BME280;7632;64.944;20.038;2024-03-17T09:17:41;100481.50;;;-4.41;60.27
15066;BME280;7632;64.944;20.038;2024-03-17T09:20:11;100483.53;;;-4.49;59.84
15066;BME280;7632;64.944;20.038;2024-03-17T09:22:40;100491.69;;;-4.26;59.28
15066;BME280;7632;64.944;20.038;2024-03-17T09:25:07;100487.13;;;-4.07;59.97
15066;BME280;7632;64.944;20.038;2024-03-17T09:27:34;100489.31;;;-4.50;54.64
15066;BME280;7632;64.944;20.038;2024-03-17T09:30:03;100494.03;;;-4.16;59.29
15066;BME280;7632;64.944;20.038;2024-03-17T09:32:32;100494.09;;;-3.90;60.19
15066;BME280;7632;64.944;20.038;2024-03-17T09:35:00;100499.78;;;-4.30;54.58
15066;BME280;7632;64.944;20.038;2024-03-17T09:37:28;100493.31;;;-3.76;57.02
15066;BME280;7632;64.944;20.038;2024-03-17T09:39:56;100486.56;;;-3.51;55.55
15066;BME280;7632;64.944;20.038;2024-03-17T09:42:25;100494.28;;;-3.35;54.00
15066;BME280;7632;64.944;20.038;2024-03-17T09:44:53;100507.81;;;-3.72;55.17
15066;BME280;7632;64.944;20.038;2024-03-17T09:47:22;100499.50;;;-3.71;54.89
15066;BME280;7632;64.944;20.038;2024-03-17T09:49:50;100518.72;;;-4.22;53.47
15066;BME280;7632;64.944;20.038;2024-03-17T09:52:20;100509.53;;;-3.84;56.86
15066;BME280;7632;64.944;20.038;2024-03-17T09:54:53;100509.56;;;-3.58;54.66
15066;BME280;7632;64.944;20.038;2024-03-17T09:57:22;100503.94;;;-3.28;55.21
15066;BME280;7632;64.944;20.038;2024-03-17T09:59:55;100495.66;;;-2.99;54.64
15066;BME280;7632;64.944;20.038;2024-03-17T10:02:22;100500.38;;;-2.91;53.84
15066;BME280;7632;64.944;20.038;2024-03-17T10:04:49;100506.16;;;-2.79;52.83
15066;BME280;7632;64.944;20.038;2024-03-17T10:07:16;100505.69;;;-2.58;51.75
15066;BME280;7632;64.944;20.038;2024-03-17T10:09:44;100508.50;;;-2.39;50.00
15066;BME280;7632;64.944;20.038;2024-03-17T10:12:27;100495.00;;;-2.27;53.99
15066;BME280;7632;64.944;20.038;2024-03-17T10:14:58;100496.88;;;-2.80;50.14
15066;BME280;7632;64.944;20.038;2024-03-17T10:17:29;100493.19;;;-2.72;52.04
15066;BME280;7632;64.944;20.038;2024-03-17T10:20:14;100498.03;;;-2.32;52.49
15066;BME280;7632;64.944;20.038;2024-03-17T10:23:00;100492.78;;;-1.93;51.81
15066;BME280;7632;64.944;20.038;2024-03-17T10:25:29;100496.94;;;-1.64;51.93
15066;BME280;7632;64.944;20.038;2024-03-17T10:27:57;100501.44;;;-1.59;49.89
15066;BME280;7632;64.944;20.038;2024-03-17T10:30:25;100498.03;;;-1.45;50.90
15066;BME280;7632;64.944;20.038;2024-03-17T10:32:54;100501.97;;;-1.50;48.61
15066;BME280;7632;64.944;20.038;2024-03-17T10:35:28;100497.53;;;-1.23;49.99
15066;BME280;7632;64.944;20.038;2024-03-17T10:37:57;100497.88;;;-1.17;48.88
15066;BME280;7632;64.944;20.038;2024-03-17T10:40:24;100503.44;;;-1.08;50.57
15066;BME280;7632;64.944;20.038;2024-03-17T10:42:53;100502.56;;;-1.09;48.16
15066;BME280;7632;64.944;20.038;2024-03-17T10:45:20;100504.94;;;-0.79;46.71
15066;BME280;7632;64.944;20.038;2024-03-17T10:47:49;100498.47;;;-1.07;47.00
15066;BME280;7632;64.944;20.038;2024-03-17T10:50:18;100504.66;;;-1.16;44.91
15066;BME280;7632;64.944;20.038;2024-03-17T10:52:47;100501.63;;;-0.95;45.25
15066;BME280;7632;64.944;20.038;2024-03-17T10:55:21;100508.75;;;-0.71;45.15
15066;BME280;7632;64.944;20.038;2024-03-17T10:57:50;100506.47;;;-0.51;43.93
15066;BME280;7632;64.944;20.038;2024-03-17T11:00:20;100497.50;;;-1.09;44.61
15066;BME280;7632;64.944;20.038;2024-03-17T11:02:49;100503.88;;;-0.68;46.28
15066;BME280;7632;64.944;20.038;2024-03-17T11:05:20;100505.47;;;-0.54;48.69
15066;BME280;7632;64.944;20.038;2024-03-17T11:07:50;100512.41;;;-0.50;46.98
15066;BME280;7632;64.944;20.038;2024-03-17T11:10:20;100502.34;;;-0.97;43.22
15066;BME280;7632;64.944;20.038;2024-03-17T11:12:49;100507.22;;;-1.00;47.56
15066;BME280;7632;64.944;20.038;2024-03-17T11:15:40;100518.81;;;-0.88;45.98
15066;BME280;7632;64.944;20.038;2024-03-17T11:18:35;100511.75;;;-0.62;46.74
15066;BME280;7632;64.944;20.038;2024-03-17T11:23:55;100521.75;;;-0.64;42.75
15066;BME280;7632;64.944;20.038;2024-03-17T11:26:26;100520.91;;;-1.26;41.97
15066;BME280;7632;64.944;20.038;2024-03-17T11:28:53;100517.22;;;-1.47;42.81
15066;BME280;7632;64.944;20.038;2024-03-17T11:31:43;100511.88;;;-0.92;43.84
15066;BME280;7632;64.944;20.038;2024-03-17T11:34:30;100516.53;;;-0.83;45.26
15066;BME280;7632;64.944;20.038;2024-03-17T11:36:56;100518.69;;;-0.58;45.17
15066;BME280;7632;64.944;20.038;2024-03-17T11:39:51;100523.75;;;-0.58;43.12
15066;BME280;7632;64.944;20.038;2024-03-17T11:42:30;100534.44;;;-0.78;44.29
15066;BME280;7632;64.944;20.038;2024-03-17T11:45:00;100524.84;;;-1.31;43.17
15066;BME280;7632;64.944;20.038;2024-03-17T11:47:37;100537.41;;;-1.76;43.79
15066;BME280;7632;64.944;20.038;2024-03-17T11:50:05;100546.06;;;-2.00;42.78
15066;BME280;7632;64.944;20.038;2024-03-17T11:52:35;100538.44;;;-1.87;43.42
15066;BME280;7632;64.944;20.038;2024-03-17T11:55:01;100543.22;;;-1.48;43.91
15066;BME280;7632;64.944;20.038;2024-03-17T11:57:28;100540.22;;;-0.96;45.88
15066;BME280;7632;64.944;20.038;2024-03-17T11:59:55;100542.78;;;-0.79;45.18
15066;BME280;7632;64.944;20.038;2024-03-17T12:02:24;100534.59;;;-0.59;45.15
15066;BME280;7632;64.944;20.038;2024-03-17T12:04:53;100533.91;;;-1.04;41.58
15066;BME280;7632;64.944;20.038;2024-03-17T12:07:21;100537.41;;;-0.86;46.31
15066;BME280;7632;64.944;20.038;2024-03-17T12:09:49;100528.09;;;-1.03;41.49
15066;BME280;7632;64.944;20.038;2024-03-17T12:12:18;100537.75;;;-1.10;41.30
15066;BME280;7632;64.944;20.038;2024-03-17T12:14:45;100534.94;;;-1.31;40.92
15066;BME280;7632;64.944;20.038;2024-03-17T12:17:14;100548.75;;;-0.94;41.94
15066;BME280;7632;64.944;20.038;2024-03-17T12:19:41;100544.28;;;-1.14;38.78
15066;BME280;7632;64.944;20.038;2024-03-17T12:22:15;100541.88;;;-1.27;40.11
15066;BME280;7632;64.944;20.038;2024-03-17T12:24:43;100542.53;;;-1.00;42.32
15066;BME280;7632;64.944;20.038;2024-03-17T12:27:17;100534.53;;;-0.61;41.32
15066;BME280;7632;64.944;20.038;2024-03-17T12:29:43;100540.94;;;-0.51;44.58
15066;BME280;7632;64.944;20.038;2024-03-17T12:32:13;100536.69;;;-0.36;40.57
15066;BME280;7632;64.944;20.038;2024-03-17T12:34:40;100531.91;;;-0.95;41.28
15066;BME280;7632;64.944;20.038;2024-03-17T12:37:07;100536.50;;;-0.71;41.92
15066;BME280;7632;64.944;20.038;2024-03-17T12:39:35;100530.75;;;-0.37;41.63
15066;BME280;7632;64.944;20.038;2024-03-17T12:42:06;100524.28;;;-0.80;40.84
15066;BME280;7632;64.944;20.038;2024-03-17T12:44:33;100527.66;;;-0.79;41.31
15066;BME280;7632;64.944;20.038;2024-03-17T12:47:02;100514.53;;;-1.05;40.18
15066;BME280;7632;64.944;20.038;2024-03-17T12:49:28;100520.06;;;-0.96;43.44